Adriatic Id — VRFP6 — position and weather

sailwx.info

Track history (hours):
 
Tides and Currents Weather Stations Pressure Air Temp Water Temp Dewpoint Dewpoint Depression Visibility Wind Speed Wind Dir Waves Ship Positions

Adriatic Id

Last reported at 2015-May-24 21:12 UTC. Time now 2015-May-24 23:28 UTC.
Position N 24°32' E 118°05'.

Length 158 m; draft 5.5 m.

Type: Cargo ship. MMSI: 477559800.

Date/timePositionNaut miles runAvg speedWind from/ knotsBaromVisibWave heightAir tempDewpointWater temp
2015-May-24 21:12N 24°32' E 118°05'0 0.0
2015-May-24 20:18N 24°32' E 118°05'0 0.0
2015-May-24 19:33N 24°32' E 118°05'0 0.0
2015-May-24 18:18N 24°32' E 118°05'0 0.0
2015-May-24 17:27N 24°32' E 118°05'0 0.0
2015-May-24 16:27N 24°32' E 118°05'0 0.0
2015-May-24 15:24N 24°32' E 118°05'0 0.0
2015-May-24 14:09N 24°32' E 118°05'0 0.0
2015-May-24 13:30N 24°32' E 118°05'0 0.0
2015-May-24 12:12N 24°32' E 118°05'0 0.0
2015-May-24 10:24N 24°32' E 118°05'0 0.0
2015-May-24 09:30N 24°32' E 118°05'4 4.3
2015-May-24 08:32N 24°29' E 118°04'9 9.5
2015-May-24 07:33N 24°21' E 118°10'6 5.2
2015-May-24 06:30N 24°19' E 118°15'0 0.0
2015-May-24 05:12N 24°19' E 118°15'0 0.1
2015-May-24 04:30N 24°19' E 118°15'0 0.0
2015-May-24 03:24N 24°19' E 118°15'0 0.1
2015-May-24 01:18N 24°19' E 118°15'0 0.1
2015-May-24 00:33N 24°19' E 118°15'1111.2
2015-May-23 23:33N 24°18' E 118°28'1313.6
2015-May-23 22:33N 24°22' E 118°42'2813.8
2015-May-23 20:32N 24°33' E 119°10'  
2015-May-21 05:31N 26°04' E 119°49'13 9.6
2015-May-21 04:08N 26°08' E 119°35'5 9.2
2015-May-21 03:33N 26°04' E 119°31'2 1.7
2015-May-21 02:29N 26°03' E 119°30'0 0.0
2015-May-21 01:29N 26°03' E 119°30'0 0.0
2015-May-21 00:29N 26°03' E 119°30'0 0.0
2015-May-20 23:23N 26°03' E 119°30'0 0.0
2015-May-20 22:29N 26°03' E 119°30'0 0.0
2015-May-20 21:29N 26°03' E 119°30'0 0.0
2015-May-20 20:29N 26°03' E 119°30'0 0.0
2015-May-20 19:29N 26°03' E 119°30'0 0.0
2015-May-20 18:23N 26°03' E 119°30'0 0.0
2015-May-20 17:29N 26°03' E 119°30'0 0.0
2015-May-20 15:23N 26°03' E 119°30'0 0.0
2015-May-20 11:05N 26°03' E 119°30'0 0.0
2015-May-20 10:29N 26°03' E 119°30'0 0.0
2015-May-20 09:29N 26°03' E 119°30'3 3.1
2015-May-20 08:33N 26°05' E 119°32'19 1.3
2015-May-19 17:23N 26°02' E 119°53'  
2015-May-14 23:33N 26°06' E 119°32'4 2.6
2015-May-14 22:07N 26°03' E 119°30'0 0.0
2015-May-14 21:19N 26°03' E 119°30'  
Track history (hours):
 
Tides and Currents Weather Stations Pressure Air Temp Water Temp Dewpoint Dewpoint Depression Visibility Wind Speed Wind Dir Waves Ship Positions

Adriatic Id

Last reported at 2015-May-24 21:12 UTC. Time now 2015-May-24 23:28 UTC.
Position N 24°32' E 118°05'.

Length 158 m; draft 5.5 m.

Type: Cargo ship. MMSI: 477559800.

Date/timePositionNaut miles runAvg speedWind from/ knotsBaromVisibWave heightAir tempDewpointWater temp
2015-May-24 21:12N 24°32' E 118°05'0 0.0
2015-May-24 20:18N 24°32' E 118°05'0 0.0
2015-May-24 19:33N 24°32' E 118°05'0 0.0
2015-May-24 18:18N 24°32' E 118°05'0 0.0
2015-May-24 17:27N 24°32' E 118°05'0 0.0
2015-May-24 16:27N 24°32' E 118°05'0 0.0
2015-May-24 15:24N 24°32' E 118°05'0 0.0
2015-May-24 14:09N 24°32' E 118°05'0 0.0
2015-May-24 13:30N 24°32' E 118°05'0 0.0
2015-May-24 12:12N 24°32' E 118°05'0 0.0
2015-May-24 10:24N 24°32' E 118°05'0 0.0
2015-May-24 09:30N 24°32' E 118°05'4 4.3
2015-May-24 08:32N 24°29' E 118°04'9 9.5
2015-May-24 07:33N 24°21' E 118°10'6 5.2
2015-May-24 06:30N 24°19' E 118°15'0 0.0
2015-May-24 05:12N 24°19' E 118°15'0 0.1
2015-May-24 04:30N 24°19' E 118°15'0 0.0
2015-May-24 03:24N 24°19' E 118°15'0 0.1
2015-May-24 01:18N 24°19' E 118°15'0 0.1
2015-May-24 00:33N 24°19' E 118°15'1111.2
2015-May-23 23:33N 24°18' E 118°28'1313.6
2015-May-23 22:33N 24°22' E 118°42'2813.8
2015-May-23 20:32N 24°33' E 119°10'  
2015-May-21 05:31N 26°04' E 119°49'13 9.6
2015-May-21 04:08N 26°08' E 119°35'5 9.2
2015-May-21 03:33N 26°04' E 119°31'2 1.7
2015-May-21 02:29N 26°03' E 119°30'0 0.0
2015-May-21 01:29N 26°03' E 119°30'0 0.0
2015-May-21 00:29N 26°03' E 119°30'0 0.0
2015-May-20 23:23N 26°03' E 119°30'0 0.0
2015-May-20 22:29N 26°03' E 119°30'0 0.0
2015-May-20 21:29N 26°03' E 119°30'0 0.0
2015-May-20 20:29N 26°03' E 119°30'0 0.0
2015-May-20 19:29N 26°03' E 119°30'0 0.0
2015-May-20 18:23N 26°03' E 119°30'0 0.0
2015-May-20 17:29N 26°03' E 119°30'0 0.0
2015-May-20 15:23N 26°03' E 119°30'0 0.0
2015-May-20 11:05N 26°03' E 119°30'0 0.0
2015-May-20 10:29N 26°03' E 119°30'0 0.0
2015-May-20 09:29N 26°03' E 119°30'3 3.1
2015-May-20 08:33N 26°05' E 119°32'19 1.3
2015-May-19 17:23N 26°02' E 119°53'  
2015-May-14 23:33N 26°06' E 119°32'4 2.6
2015-May-14 22:07N 26°03' E 119°30'0 0.0
2015-May-14 21:19N 26°03' E 119°30'  

Dump ship's entire track history